This is the latest recevied weather packets stored in our database for station/object W5HKR. If no packets are shown the sender has not sent any weather packets the latest 10 day(s).
| Time | Temp. | Humidity | Pressure | Rain* | Wind** | Luminosity | Snow |
|---|---|---|---|---|---|---|---|
| 1777814611 | 18.33° C | 91% | 990.6 hPa | 0 mm | - | - | - |
| 1777814522 | 18.33° C | 91% | 990.6 hPa | 0 mm | - | - | - |
| 1777814310 | 13.33° C | 88% | 994.1 hPa | 0 mm | - | - | - |
| 1777814010 | 18.33° C | 91% | 990.6 hPa | 0 mm | - | - | - |
| 1777813711 | 18.33° C | 91% | 990.6 hPa | 0 mm | - | - | - |
| 1777813441 | 12.22° C | 91% | 994 hPa | 0 mm | - | - | - |
| 1777813410 | 18.33° C | 91% | 990.6 hPa | 0 mm | - | - | - |
| 1777813112 | 11.67° C | 92% | 993.9 hPa | 0 mm | - | - | - |
| 1777812811 | 11.11° C | 93% | 994.2 hPa | 0 mm | - | - | - |
| 1777812511 | 11.11° C | 93% | 994 hPa | 0 mm | - | - | - |
| 1777812362 | 11.11° C | 93% | 993.9 hPa | 0 mm | - | - | - |
| 1777812213 | 18.33° C | 91% | 990.6 hPa | 0 mm | - | - | - |
| 1777811911 | 10.56° C | 94% | 994.2 hPa | 0 mm | - | - | - |
| 1777811610 | 18.33° C | 91% | 990.6 hPa | 0 mm | - | - | - |
| 1777811282 | 18.33° C | 91% | 990.6 hPa | 0 mm | - | - | - |
| 1777810711 | 18.33° C | 91% | 990.6 hPa | 0 mm | - | - | - |
| 1777810411 | 18.33° C | 91% | 990.6 hPa | 0 mm | - | - | - |
| 1777810202 | 10.56° C | 94% | 993.6 hPa | 0 mm | - | - | - |
| 1777810110 | 10.56° C | 94% | 993.9 hPa | 0 mm | - | - | - |
| 1777809811 | 18.33° C | 91% | 990.6 hPa | 0 mm | - | - | - |
| 1777809510 | 10.56° C | 94% | 993.6 hPa | 0 mm | - | - | - |
| 1777809210 | 18.33° C | 91% | 990.6 hPa | 0 mm | - | - | - |
| 1777809122 | 18.33° C | 91% | 990.6 hPa | 0 mm | - | - | - |
| 1777808910 | 18.33° C | 91% | 990.6 hPa | 0 mm | - | - | - |
| 1777808610 | 18.33° C | 91% | 990.6 hPa | 0 mm | - | - | - |
* Rain latest hour (hover to see other rain measurements)
** Current wind speed in m/s (hover to see current wind gust speed)